Time;durP1;ratioP1;P1;durP2;ratioP2;P2;SDS_P1;SDS_P2;PMS_P1;PMS_P2;Temp;Humidity;BMP_temperature;BMP_pressure;BME280_temperature;BME280_humidity;BME280_pressure;Samples;Min_cycle;Max_cycle;Signal;HPM_P1;HPM_P2
2023/12/28 00:02:18;;;;;;;2.22;1.15;;;;;;;;;;5055238;28;20036;-58
2023/12/28 00:04:45;;;;;;;2.75;1.63;;;;;;;;;;5055242;28;20029;-57
2023/12/28 00:07:12;;;;;;;2.55;1.15;;;;;;;;;;5055481;28;20116;-58
2023/12/28 00:09:38;;;;;;;1.83;1.00;;;;;;;;;;5055143;28;20032;-58
2023/12/28 00:12:04;;;;;;;2.15;1.00;;;;;;;;;;5055158;28;20103;-57
2023/12/28 00:14:30;;;;;;;2.78;0.98;;;;;;;;;;5054920;28;20025;-58
2023/12/28 00:16:56;;;;;;;2.42;1.25;;;;;;;;;;5055240;28;20040;-57
2023/12/28 00:19:22;;;;;;;3.30;1.45;;;;;;;;;;5055354;28;20033;-58
2023/12/28 00:21:48;;;;;;;2.78;1.52;;;;;;;;;;5054944;28;20021;-58
2023/12/28 00:24:15;;;;;;;1.40;0.82;;;;;;;;;;5055172;28;20037;-58
2023/12/28 00:26:41;;;;;;;1.77;1.00;;;;;;;;;;5055351;28;20061;-57
2023/12/28 00:29:07;;;;;;;2.20;1.25;;;;;;;;;;5055415;28;20055;-57
2023/12/28 00:31:33;;;;;;;2.38;1.33;;;;;;;;;;5055558;28;20025;-57
2023/12/28 00:33:59;;;;;;;1.80;1.00;;;;;;;;;;5054731;28;20496;-58
2023/12/28 00:36:25;;;;;;;2.10;0.90;;;;;;;;;;5055214;28;20116;-58
2023/12/28 00:38:51;;;;;;;3.17;1.50;;;;;;;;;;5054942;28;20021;-58
2023/12/28 00:41:17;;;;;;;2.90;1.70;;;;;;;;;;5054549;28;20028;-58
2023/12/28 00:43:43;;;;;;;2.80;1.65;;;;;;;;;;5054473;28;20032;-58
2023/12/28 00:46:09;;;;;;;1.50;0.98;;;;;;;;;;5054227;28;20021;-58
2023/12/28 00:48:34;;;;;;;2.22;1.35;;;;;;;;;;5054722;28;20447;-58
2023/12/28 00:51:00;;;;;;;1.70;0.90;;;;;;;;;;5053938;28;20033;-58
2023/12/28 00:53:27;;;;;;;2.25;1.30;;;;;;;;;;5054352;28;20029;-58
2023/12/28 00:55:53;;;;;;;2.30;1.00;;;;;;;;;;5054752;28;20157;-57
2023/12/28 00:58:19;;;;;;;2.67;1.40;;;;;;;;;;5054803;28;20445;-58
2023/12/28 01:00:44;;;;;;;2.10;1.00;;;;;;;;;;5054191;28;20025;-58
2023/12/28 01:03:10;;;;;;;1.58;1.00;;;;;;;;;;5054118;28;20025;-58
2023/12/28 01:05:36;;;;;;;2.25;1.30;;;;;;;;;;5053839;28;20029;-57
2023/12/28 01:08:02;;;;;;;2.47;1.08;;;;;;;;;;5053850;28;20021;-56
2023/12/28 01:10:28;;;;;;;3.63;1.20;;;;;;;;;;5054238;28;20025;-57
2023/12/28 01:12:54;;;;;;;2.38;1.10;;;;;;;;;;5053900;28;20028;-58
2023/12/28 01:15:20;;;;;;;1.70;0.85;;;;;;;;;;5053890;28;20082;-59
2023/12/28 01:17:49;;;;;;;2.42;1.27;;;;;;;;;;5054148;28;20087;-58
2023/12/28 01:20:15;;;;;;;4.90;1.42;;;;;;;;;;5053572;28;20493;-57
2023/12/28 01:22:41;;;;;;;2.78;1.17;;;;;;;;;;5054313;28;20029;-57
2023/12/28 01:25:07;;;;;;;2.10;1.10;;;;;;;;;;5053710;28;20118;-57
2023/12/28 01:27:33;;;;;;;2.13;1.42;;;;;;;;;;5053780;28;20021;-58
2023/12/28 01:29:59;;;;;;;2.10;1.10;;;;;;;;;;5053354;28;20025;-58
2023/12/28 01:32:25;;;;;;;1.92;0.90;;;;;;;;;;5054260;28;20023;-58
2023/12/28 01:34:51;;;;;;;2.08;1.30;;;;;;;;;;5053886;28;20090;-56
2023/12/28 01:37:17;;;;;;;1.95;1.00;;;;;;;;;;5054267;28;20028;-55
2023/12/28 01:39:43;;;;;;;2.78;1.63;;;;;;;;;;5054105;28;20027;-57
2023/12/28 01:42:10;;;;;;;1.90;0.90;;;;;;;;;;5053557;28;20021;-57
2023/12/28 01:44:36;;;;;;;1.90;1.02;;;;;;;;;;5054170;28;20413;-57
2023/12/28 01:47:01;;;;;;;2.70;1.40;;;;;;;;;;5053425;28;20033;-58
2023/12/28 01:49:27;;;;;;;2.55;1.35;;;;;;;;;;5053987;28;20033;-58
2023/12/28 01:51:53;;;;;;;2.58;1.30;;;;;;;;;;5053173;28;20040;-57
2023/12/28 01:54:19;;;;;;;2.63;1.30;;;;;;;;;;5053081;28;20368;-56
2023/12/28 01:56:46;;;;;;;2.08;1.10;;;;;;;;;;5054263;28;20075;-58
2023/12/28 01:59:12;;;;;;;2.00;1.10;;;;;;;;;;5054176;28;20082;-57
2023/12/28 02:01:38;;;;;;;2.55;1.35;;;;;;;;;;5053452;28;20116;-57
2023/12/28 02:04:04;;;;;;;2.28;0.88;;;;;;;;;;5057135;28;20494;-57
2023/12/28 02:06:29;;;;;;;2.55;1.45;;;;;;;;;;5057531;28;20375;-57
2023/12/28 02:08:55;;;;;;;2.22;1.20;;;;;;;;;;5057950;28;20032;-56
2023/12/28 02:11:21;;;;;;;2.67;1.35;;;;;;;;;;5057300;28;20482;-58
2023/12/28 02:13:47;;;;;;;3.72;1.20;;;;;;;;;;5057260;28;20044;-58
2023/12/28 02:16:15;;;;;;;2.20;1.48;;;;;;;;;;5057285;28;20029;-58
2023/12/28 02:18:48;;;;;;;2.67;1.38;;;;;;;;;;5057613;28;20029;-57
2023/12/28 02:21:15;;;;;;;2.58;1.17;;;;;;;;;;5057916;28;20029;-58
2023/12/28 02:23:47;;;;;;;2.33;1.42;;;;;;;;;;5056842;28;20025;-57
2023/12/28 02:26:12;;;;;;;2.03;1.10;;;;;;;;;;5057674;28;20116;-57
2023/12/28 02:28:38;;;;;;;2.03;1.02;;;;;;;;;;5057380;28;20131;-58
2023/12/28 02:31:06;;;;;;;2.13;1.20;;;;;;;;;;5056947;28;20021;-58
2023/12/28 02:33:38;;;;;;;2.20;1.30;;;;;;;;;;5057376;28;20025;-58
2023/12/28 02:36:11;;;;;;;2.13;1.27;;;;;;;;;;5056939;28;20040;-58
2023/12/28 02:38:39;;;;;;;2.17;1.15;;;;;;;;;;5057237;28;20025;-58
2023/12/28 02:41:05;;;;;;;2.63;1.15;;;;;;;;;;5057506;28;20021;-58
2023/12/28 02:43:33;;;;;;;3.47;1.15;;;;;;;;;;5057458;28;20017;-57
2023/12/28 02:45:59;;;;;;;2.85;1.35;;;;;;;;;;5056745;28;20040;-58
2023/12/28 02:48:25;;;;;;;2.90;1.25;;;;;;;;;;5056988;28;20455;-59
2023/12/28 02:50:51;;;;;;;3.42;1.10;;;;;;;;;;5056322;28;20395;-58
2023/12/28 02:53:17;;;;;;;1.58;0.75;;;;;;;;;;5056672;28;20025;-58
2023/12/28 02:55:43;;;;;;;2.50;0.93;;;;;;;;;;5057151;28;20149;-58
2023/12/28 02:58:09;;;;;;;2.13;1.00;;;;;;;;;;5056397;28;20037;-58
2023/12/28 03:00:35;;;;;;;2.17;1.10;;;;;;;;;;5057079;28;20032;-58
2023/12/28 03:03:01;;;;;;;2.38;1.10;;;;;;;;;;5056901;28;20021;-57
2023/12/28 03:05:27;;;;;;;2.13;1.05;;;;;;;;;;5056380;28;20025;-57
2023/12/28 03:07:55;;;;;;;2.00;1.10;;;;;;;;;;5056874;28;20033;-57
2023/12/28 03:10:24;;;;;;;2.05;1.00;;;;;;;;;;5056870;28;20086;-58
2023/12/28 03:12:50;;;;;;;1.55;0.88;;;;;;;;;;5056311;28;20039;-56
2023/12/28 03:15:16;;;;;;;3.17;1.45;;;;;;;;;;5056658;28;20405;-58
2023/12/28 03:17:42;;;;;;;2.10;1.02;;;;;;;;;;5056985;28;20116;-58
2023/12/28 03:20:09;;;;;;;2.55;1.30;;;;;;;;;;5055601;28;20371;-58
2023/12/28 03:22:35;;;;;;;2.95;1.27;;;;;;;;;;5055990;28;20029;-58
2023/12/28 03:25:00;;;;;;;1.90;1.23;;;;;;;;;;5055964;28;20293;-57
2023/12/28 03:27:26;;;;;;;1.60;0.95;;;;;;;;;;5056154;28;20028;-58
2023/12/28 03:29:52;;;;;;;2.75;0.88;;;;;;;;;;5056621;28;20029;-58
2023/12/28 03:32:18;;;;;;;1.85;0.88;;;;;;;;;;5054552;28;20340;-58
2023/12/28 03:34:44;;;;;;;2.17;1.23;;;;;;;;;;5056218;28;20025;-56
2023/12/28 03:37:11;;;;;;;5.22;1.08;;;;;;;;;;5055979;28;20031;-56
2023/12/28 03:39:37;;;;;;;2.88;1.08;;;;;;;;;;5055669;28;20455;-58
2023/12/28 03:42:03;;;;;;;1.63;0.73;;;;;;;;;;5056194;28;20083;-58
2023/12/28 03:44:29;;;;;;;2.17;1.08;;;;;;;;;;5056151;28;20455;-58
2023/12/28 03:46:56;;;;;;;2.55;1.15;;;;;;;;;;5056045;28;20035;-57
2023/12/28 03:49:22;;;;;;;1.92;1.10;;;;;;;;;;5056405;28;20071;-57
2023/12/28 03:51:49;;;;;;;1.58;0.90;;;;;;;;;;5056008;28;20025;-58
2023/12/28 03:54:18;;;;;;;2.40;1.17;;;;;;;;;;5055267;28;20025;-57
2023/12/28 03:56:45;;;;;;;3.63;1.10;;;;;;;;;;5056285;28;20068;-56
2023/12/28 03:59:11;;;;;;;2.67;1.10;;;;;;;;;;5055896;28;20086;-58
2023/12/28 04:01:37;;;;;;;2.20;1.25;;;;;;;;;;5055201;28;20029;-58
2023/12/28 04:04:03;;;;;;;1.88;0.80;;;;;;;;;;5055816;28;20371;-58
2023/12/28 04:06:29;;;;;;;2.25;0.90;;;;;;;;;;5055175;28;20025;-58
2023/12/28 04:08:54;;;;;;;1.88;0.88;;;;;;;;;;5055715;28;20032;-57
2023/12/28 04:11:20;;;;;;;2.03;1.00;;;;;;;;;;5055861;28;20025;-57
2023/12/28 04:13:46;;;;;;;1.70;0.90;;;;;;;;;;5055386;28;20059;-57
2023/12/28 04:16:13;;;;;;;2.38;1.02;;;;;;;;;;5054844;28;20041;-57
2023/12/28 04:18:39;;;;;;;1.73;1.00;;;;;;;;;;5055859;28;20035;-58
2023/12/28 04:21:08;;;;;;;2.05;1.02;;;;;;;;;;5054898;28;20366;-58
2023/12/28 04:23:34;;;;;;;2.40;1.15;;;;;;;;;;5054835;28;20041;-57
2023/12/28 04:26:00;;;;;;;2.22;1.20;;;;;;;;;;5054217;28;20029;-58
2023/12/28 04:28:26;;;;;;;3.50;1.60;;;;;;;;;;5055126;28;20367;-58
2023/12/28 04:30:52;;;;;;;1.70;1.02;;;;;;;;;;5055325;28;20389;-57
2023/12/28 04:33:19;;;;;;;2.95;1.20;;;;;;;;;;5055198;28;20108;-56
2023/12/28 04:35:45;;;;;;;2.40;1.13;;;;;;;;;;5054260;28;20391;-57
2023/12/28 04:38:11;;;;;;;2.10;0.95;;;;;;;;;;5055089;28;20029;-57
2023/12/28 04:40:37;;;;;;;2.55;1.33;;;;;;;;;;5055033;28;20025;-57
2023/12/28 04:43:03;;;;;;;2.05;1.20;;;;;;;;;;5054381;28;20112;-58
2023/12/28 04:45:29;;;;;;;2.15;1.27;;;;;;;;;;5055098;28;20031;-57
2023/12/28 04:47:55;;;;;;;2.15;1.00;;;;;;;;;;5054080;28;20025;-58
2023/12/28 04:50:21;;;;;;;2.05;0.88;;;;;;;;;;5054120;28;20021;-57
2023/12/28 04:52:47;;;;;;;2.20;1.17;;;;;;;;;;5054565;28;20079;-56
2023/12/28 04:55:13;;;;;;;2.15;1.23;;;;;;;;;;5054377;28;20056;-56
2023/12/28 04:57:41;;;;;;;1.77;1.08;;;;;;;;;;5054753;28;20047;-58
2023/12/28 05:00:08;;;;;;;3.15;0.93;;;;;;;;;;5054185;28;20063;-58
2023/12/28 05:02:34;;;;;;;2.28;0.93;;;;;;;;;;5054223;28;20039;-58
2023/12/28 05:05:00;;;;;;;1.98;1.05;;;;;;;;;;5054477;28;20047;-58
2023/12/28 05:07:25;;;;;;;1.90;1.05;;;;;;;;;;5054611;28;20421;-58
2023/12/28 05:09:51;;;;;;;2.55;1.13;;;;;;;;;;5054071;28;20029;-57
2023/12/28 05:12:17;;;;;;;5.38;1.10;;;;;;;;;;5054543;28;20124;-58
2023/12/28 05:14:43;;;;;;;1.58;0.90;;;;;;;;;;5054465;28;20458;-57
2023/12/28 05:17:11;;;;;;;2.05;0.95;;;;;;;;;;5053996;28;20103;-58
2023/12/28 05:19:37;;;;;;;1.73;0.85;;;;;;;;;;5054053;28;20029;-58
2023/12/28 05:22:06;;;;;;;1.85;0.80;;;;;;;;;;5054237;28;20135;-57
2023/12/28 05:24:32;;;;;;;1.85;1.10;;;;;;;;;;5053904;28;20068;-58
2023/12/28 05:26:58;;;;;;;1.83;0.90;;;;;;;;;;5053872;28;20021;-57
2023/12/28 05:29:24;;;;;;;1.27;0.63;;;;;;;;;;5054400;28;20538;-58
2023/12/28 05:31:50;;;;;;;2.00;1.10;;;;;;;;;;5053736;28;20025;-58
2023/12/28 05:34:16;;;;;;;2.50;0.98;;;;;;;;;;5053606;28;20057;-58
2023/12/28 05:36:45;;;;;;;1.70;0.77;;;;;;;;;;5053547;28;20029;-57
2023/12/28 05:39:13;;;;;;;1.80;0.90;;;;;;;;;;5054252;28;20533;-57
2023/12/28 05:41:39;;;;;;;1.48;0.73;;;;;;;;;;5053578;28;20079;-56
2023/12/28 05:44:05;;;;;;;1.90;1.05;;;;;;;;;;5053882;28;20363;-58
2023/12/28 05:46:31;;;;;;;1.98;0.82;;;;;;;;;;5052039;28;20429;-58
2023/12/28 05:48:57;;;;;;;1.73;1.00;;;;;;;;;;5054349;28;20029;-58
2023/12/28 05:51:23;;;;;;;1.42;0.90;;;;;;;;;;5054080;28;20029;-58
2023/12/28 05:53:49;;;;;;;3.03;1.63;;;;;;;;;;5053219;28;20021;-58
2023/12/28 05:56:15;;;;;;;1.85;1.10;;;;;;;;;;5053525;28;20053;-59
2023/12/28 05:58:41;;;;;;;1.70;0.80;;;;;;;;;;5053797;28;20022;-59
2023/12/28 06:01:07;;;;;;;1.70;0.90;;;;;;;;;;5053447;28;20025;-58
2023/12/28 06:03:33;;;;;;;3.05;1.15;;;;;;;;;;5053478;28;20542;-58
2023/12/28 06:05:59;;;;;;;2.35;1.30;;;;;;;;;;5053418;28;20040;-59
2023/12/28 06:08:25;;;;;;;1.63;0.80;;;;;;;;;;5053653;28;20021;-57
2023/12/28 06:10:51;;;;;;;1.90;1.00;;;;;;;;;;5053460;28;20033;-58
2023/12/28 06:13:17;;;;;;;1.92;1.10;;;;;;;;;;5053620;28;20079;-58
2023/12/28 06:15:43;;;;;;;1.52;0.80;;;;;;;;;;5053553;28;20159;-58
2023/12/28 06:18:09;;;;;;;2.25;1.08;;;;;;;;;;5053607;28;20037;-57
2023/12/28 06:20:36;;;;;;;1.65;1.02;;;;;;;;;;5053257;28;20075;-58
2023/12/28 06:23:02;;;;;;;1.75;0.90;;;;;;;;;;5053783;28;20029;-58
2023/12/28 06:25:28;;;;;;;1.27;0.70;;;;;;;;;;5053241;28;20167;-58
2023/12/28 06:27:54;;;;;;;5.47;1.20;;;;;;;;;;5053747;28;20104;-58
2023/12/28 06:30:20;;;;;;;1.10;0.65;;;;;;;;;;5054054;28;20025;-58
2023/12/28 06:32:46;;;;;;;4.43;1.30;;;;;;;;;;5053438;28;20029;-58
2023/12/28 06:35:12;;;;;;;2.45;0.70;;;;;;;;;;5053308;28;20036;-58
2023/12/28 06:37:38;;;;;;;2.30;0.98;;;;;;;;;;5053413;28;20086;-58
2023/12/28 06:40:04;;;;;;;2.97;1.10;;;;;;;;;;5053143;28;20035;-58
2023/12/28 06:42:30;;;;;;;1.65;1.25;;;;;;;;;;5053009;28;20025;-58
2023/12/28 06:44:56;;;;;;;2.03;0.90;;;;;;;;;;5053061;28;20025;-58
2023/12/28 06:47:22;;;;;;;2.65;1.00;;;;;;;;;;5052746;28;20071;-58
2023/12/28 06:49:48;;;;;;;1.95;0.95;;;;;;;;;;5056544;28;20028;-58
2023/12/28 06:52:14;;;;;;;2.00;1.10;;;;;;;;;;5056680;28;20036;-58
2023/12/28 06:54:40;;;;;;;2.78;1.17;;;;;;;;;;5056365;28;20111;-57
2023/12/28 06:57:06;;;;;;;4.63;1.00;;;;;;;;;;5056329;28;20021;-56
2023/12/28 06:59:32;;;;;;;2.00;1.10;;;;;;;;;;5056594;28;20086;-56
2023/12/28 07:01:58;;;;;;;1.45;0.88;;;;;;;;;;5056038;28;20029;-56
2023/12/28 07:04:26;;;;;;;2.20;0.98;;;;;;;;;;5056663;28;20103;-57
2023/12/28 07:06:52;;;;;;;1.52;0.70;;;;;;;;;;5056370;28;20029;-57
2023/12/28 07:09:18;;;;;;;2.25;1.08;;;;;;;;;;5056984;28;20024;-58
2023/12/28 07:11:44;;;;;;;1.60;0.90;;;;;;;;;;5056324;28;20060;-57
2023/12/28 07:14:10;;;;;;;3.05;0.73;;;;;;;;;;5056559;28;20021;-56
2023/12/28 07:16:35;;;;;;;2.45;1.25;;;;;;;;;;5056272;28;20112;-57
2023/12/28 07:19:01;;;;;;;3.30;1.45;;;;;;;;;;5057005;28;20404;-57
2023/12/28 07:21:27;;;;;;;1.50;0.80;;;;;;;;;;5055928;28;20083;-57
2023/12/28 07:23:53;;;;;;;2.67;1.08;;;;;;;;;;5055748;28;20033;-57
2023/12/28 07:26:19;;;;;;;1.88;1.08;;;;;;;;;;5056023;28;20025;-57
2023/12/28 07:28:47;;;;;;;2.63;1.15;;;;;;;;;;5056530;28;20024;-58
2023/12/28 07:31:22;;;;;;;2.13;0.98;;;;;;;;;;5055852;28;20107;-58
2023/12/28 07:33:48;;;;;;;2.97;1.00;;;;;;;;;;5056069;28;20406;-58
2023/12/28 07:36:14;;;;;;;1.20;0.70;;;;;;;;;;5055734;28;20078;-58
2023/12/28 07:38:40;;;;;;;1.80;0.88;;;;;;;;;;5055796;28;20029;-58
2023/12/28 07:41:06;;;;;;;2.95;0.68;;;;;;;;;;5055764;28;20025;-58
2023/12/28 07:43:32;;;;;;;2.05;1.13;;;;;;;;;;5056224;28;20021;-57
2023/12/28 07:45:58;;;;;;;2.58;1.27;;;;;;;;;;5056458;28;20348;-58
2023/12/28 07:48:24;;;;;;;1.90;0.88;;;;;;;;;;5056191;28;20025;-58
2023/12/28 07:50:51;;;;;;;2.25;1.02;;;;;;;;;;5055923;28;20032;-58
2023/12/28 07:53:17;;;;;;;2.38;1.10;;;;;;;;;;5055567;28;20025;-57
2023/12/28 07:55:43;;;;;;;3.08;1.40;;;;;;;;;;5055541;28;20056;-58
2023/12/28 07:58:09;;;;;;;1.88;0.82;;;;;;;;;;5055424;28;20458;-58
2023/12/28 08:00:35;;;;;;;3.47;1.10;;;;;;;;;;5054052;28;20025;-57
2023/12/28 08:03:01;;;;;;;1.73;1.00;;;;;;;;;;5055919;28;20032;-58
2023/12/28 08:05:27;;;;;;;2.90;0.82;;;;;;;;;;5055067;28;20036;-58
2023/12/28 08:07:53;;;;;;;1.30;0.75;;;;;;;;;;5055967;28;20413;-58
2023/12/28 08:10:19;;;;;;;2.33;1.08;;;;;;;;;;5054936;28;20107;-58
2023/12/28 08:12:45;;;;;;;2.95;1.13;;;;;;;;;;5055630;28;20028;-58
2023/12/28 08:15:11;;;;;;;1.80;1.10;;;;;;;;;;5055065;28;20028;-58
2023/12/28 08:17:37;;;;;;;5.53;1.77;;;;;;;;;;5055649;28;20094;-58
2023/12/28 08:20:04;;;;;;;3.92;1.02;;;;;;;;;;5055744;28;20112;-58
2023/12/28 08:22:31;;;;;;;1.23;0.60;;;;;;;;;;5054945;28;20434;-57
2023/12/28 08:24:57;;;;;;;3.17;1.00;;;;;;;;;;5054961;28;20063;-57
2023/12/28 08:27:23;;;;;;;4.30;1.10;;;;;;;;;;5055630;28;20037;-58
2023/12/28 08:29:49;;;;;;;3.03;1.25;;;;;;;;;;5055087;28;20025;-57
2023/12/28 08:32:17;;;;;;;2.83;1.17;;;;;;;;;;5055304;28;20021;-58
2023/12/28 08:34:43;;;;;;;2.05;0.90;;;;;;;;;;5054650;28;20037;-58
2023/12/28 08:37:09;;;;;;;2.38;1.17;;;;;;;;;;5055519;28;20033;-58
2023/12/28 08:39:34;;;;;;;2.40;1.48;;;;;;;;;;5054712;28;20035;-57
2023/12/28 08:42:00;;;;;;;4.50;1.27;;;;;;;;;;5055531;28;20447;-58
2023/12/28 08:44:27;;;;;;;3.70;1.10;;;;;;;;;;5054542;28;20032;-58
2023/12/28 08:46:53;;;;;;;2.10;1.05;;;;;;;;;;5054149;28;20024;-58
2023/12/28 08:49:18;;;;;;;2.17;1.45;;;;;;;;;;5055129;28;20109;-58
2023/12/28 08:51:44;;;;;;;2.30;1.00;;;;;;;;;;5054123;28;20036;-58
2023/12/28 08:54:10;;;;;;;1.98;1.10;;;;;;;;;;5054107;28;20025;-58
2023/12/28 08:56:36;;;;;;;4.78;1.98;;;;;;;;;;5053901;28;20096;-58
2023/12/28 08:59:03;;;;;;;5.35;1.30;;;;;;;;;;5055127;28;20017;-58
2023/12/28 09:01:29;;;;;;;2.13;1.10;;;;;;;;;;5054225;28;20029;-58
2023/12/28 09:03:55;;;;;;;2.90;1.38;;;;;;;;;;5054465;28;20027;-58
2023/12/28 09:06:22;;;;;;;2.50;1.23;;;;;;;;;;5053901;28;20024;-58
2023/12/28 09:08:50;;;;;;;2.80;1.40;;;;;;;;;;5054699;28;20443;-58
2023/12/28 09:11:16;;;;;;;2.55;1.15;;;;;;;;;;5053755;28;20033;-58
2023/12/28 09:13:42;;;;;;;2.60;0.93;;;;;;;;;;5054005;28;20021;-57
2023/12/28 09:16:10;;;;;;;2.15;1.30;;;;;;;;;;5054811;28;20465;-58
2023/12/28 09:18:39;;;;;;;1.63;0.98;;;;;;;;;;5054912;28;20029;-58
2023/12/28 09:21:05;;;;;;;2.65;1.17;;;;;;;;;;5053983;28;20052;-58
2023/12/28 09:23:32;;;;;;;1.80;1.08;;;;;;;;;;5054101;28;20039;-58
2023/12/28 09:26:00;;;;;;;1.52;0.93;;;;;;;;;;5053829;28;20075;-58
2023/12/28 09:28:26;;;;;;;4.93;0.98;;;;;;;;;;5053817;28;20022;-58
2023/12/28 09:30:52;;;;;;;2.55;1.20;;;;;;;;;;5053393;28;20029;-58
2023/12/28 09:33:18;;;;;;;2.90;1.70;;;;;;;;;;5054239;28;20029;-58
2023/12/28 09:35:44;;;;;;;3.10;1.05;;;;;;;;;;5053675;28;20182;-57
2023/12/28 09:38:10;;;;;;;2.33;1.30;;;;;;;;;;5054483;28;20112;-58
2023/12/28 09:40:36;;;;;;;2.17;1.00;;;;;;;;;;5054304;28;20025;-58
2023/12/28 09:43:08;;;;;;;1.90;0.93;;;;;;;;;;5053257;28;20021;-57
2023/12/28 09:45:34;;;;;;;2.08;1.17;;;;;;;;;;5053424;28;20025;-57
2023/12/28 09:48:02;;;;;;;1.95;1.20;;;;;;;;;;5053548;28;20021;-55
2023/12/28 09:50:29;;;;;;;2.35;0.98;;;;;;;;;;5053535;28;20036;-57
2023/12/28 09:52:55;;;;;;;3.55;1.58;;;;;;;;;;5053420;28;20079;-57
2023/12/28 09:55:21;;;;;;;3.15;1.23;;;;;;;;;;5053256;28;20052;-57
2023/12/28 09:57:47;;;;;;;3.40;1.15;;;;;;;;;;5053527;28;20036;-56
2023/12/28 10:00:13;;;;;;;3.00;1.67;;;;;;;;;;5053606;28;20025;-57
2023/12/28 10:02:40;;;;;;;3.53;1.83;;;;;;;;;;5053286;28;20029;-57
2023/12/28 10:05:07;;;;;;;2.42;1.13;;;;;;;;;;5053531;28;20468;-57
2023/12/28 10:07:33;;;;;;;2.08;1.35;;;;;;;;;;5053516;28;20351;-57
2023/12/28 10:09:59;;;;;;;1.80;0.90;;;;;;;;;;5053382;28;20029;-57
2023/12/28 10:12:27;;;;;;;1.70;1.00;;;;;;;;;;5053395;28;20025;-57
2023/12/28 10:14:54;;;;;;;2.30;1.00;;;;;;;;;;5052978;28;20044;-57
2023/12/28 10:17:20;;;;;;;3.25;1.48;;;;;;;;;;5053501;28;20371;-58
2023/12/28 10:19:47;;;;;;;1.95;0.93;;;;;;;;;;5052064;28;20025;-57
2023/12/28 10:22:14;;;;;;;1.15;0.68;;;;;;;;;;5053075;28;20045;-58
2023/12/28 10:24:46;;;;;;;1.27;0.75;;;;;;;;;;5056217;28;20075;-58
2023/12/28 10:27:14;;;;;;;2.08;1.27;;;;;;;;;;5056876;28;20021;-57
2023/12/28 10:29:40;;;;;;;1.33;0.65;;;;;;;;;;5056861;28;20021;-58
2023/12/28 10:32:06;;;;;;;1.70;0.95;;;;;;;;;;5057460;28;20127;-58
2023/12/28 10:34:32;;;;;;;2.67;1.27;;;;;;;;;;5056856;28;20029;-55
2023/12/28 10:36:59;;;;;;;1.60;0.80;;;;;;;;;;5056549;28;20048;-60
2023/12/28 10:39:26;;;;;;;2.20;1.20;;;;;;;;;;5057298;28;20459;-58
2023/12/28 10:41:54;;;;;;;2.08;0.80;;;;;;;;;;5055509;28;20033;-57
2023/12/28 10:44:21;;;;;;;1.88;1.00;;;;;;;;;;5057402;28;20402;-58
2023/12/28 10:46:48;;;;;;;2.00;0.73;;;;;;;;;;5056765;28;20032;-58
2023/12/28 10:49:16;;;;;;;1.70;0.98;;;;;;;;;;5057041;28;20029;-57
2023/12/28 10:51:45;;;;;;;1.77;0.95;;;;;;;;;;5056998;28;20104;-55
2023/12/28 10:54:11;;;;;;;1.25;0.68;;;;;;;;;;5055447;28;20077;-55
2023/12/28 10:56:42;;;;;;;2.17;0.85;;;;;;;;;;5057310;28;20142;-55
2023/12/28 10:59:17;;;;;;;3.90;1.00;;;;;;;;;;5057211;28;20031;-56
2023/12/28 11:01:47;;;;;;;3.75;0.80;;;;;;;;;;5056472;28;20498;-56
2023/12/28 11:04:36;;;;;;;2.15;1.13;;;;;;;;;;5056394;28;20470;-55
2023/12/28 11:07:02;;;;;;;3.55;1.33;;;;;;;;;;5054089;28;20112;-55
2023/12/28 11:09:31;;;;;;;2.00;0.90;;;;;;;;;;5057012;28;20088;-57
2023/12/28 11:12:00;;;;;;;1.90;0.85;;;;;;;;;;5056058;28;20020;-57
2023/12/28 11:14:27;;;;;;;3.47;1.20;;;;;;;;;;5056195;28;20044;-57
2023/12/28 11:16:54;;;;;;;1.40;0.70;;;;;;;;;;5056335;28;20025;-57
2023/12/28 11:19:21;;;;;;;2.13;1.00;;;;;;;;;;5056813;28;20028;-57
2023/12/28 11:21:47;;;;;;;1.27;0.57;;;;;;;;;;5056063;28;20112;-58
2023/12/28 11:24:13;;;;;;;2.13;1.15;;;;;;;;;;5055826;28;20375;-58
2023/12/28 11:26:39;;;;;;;2.42;1.05;;;;;;;;;;5056150;28;20037;-57
2023/12/28 11:29:05;;;;;;;1.23;0.60;;;;;;;;;;5056359;28;20470;-56
2023/12/28 11:31:35;;;;;;;1.88;0.88;;;;;;;;;;5056853;28;20028;-58
2023/12/28 11:34:01;;;;;;;1.08;0.45;;;;;;;;;;5055550;28;20031;-58
2023/12/28 11:36:35;;;;;;;1.63;0.90;;;;;;;;;;5055811;28;20040;-58
2023/12/28 11:39:02;;;;;;;1.92;0.80;;;;;;;;;;5056461;28;20078;-57
2023/12/28 11:41:28;;;;;;;1.85;0.80;;;;;;;;;;5055198;28;20485;-57
2023/12/28 11:43:57;;;;;;;1.65;0.80;;;;;;;;;;5055078;28;20021;-56
2023/12/28 11:46:23;;;;;;;2.00;0.90;;;;;;;;;;5055380;28;20037;-58
2023/12/28 11:48:49;;;;;;;2.50;1.00;;;;;;;;;;5055706;28;20048;-58
2023/12/28 11:51:17;;;;;;;1.08;0.57;;;;;;;;;;5056129;28;20363;-58
2023/12/28 11:53:43;;;;;;;1.48;0.73;;;;;;;;;;5055242;28;20029;-58
2023/12/28 11:56:10;;;;;;;1.30;0.70;;;;;;;;;;5055481;28;20053;-57
2023/12/28 11:58:36;;;;;;;1.65;0.93;;;;;;;;;;5055810;28;20051;-58
2023/12/28 12:01:03;;;;;;;1.70;0.85;;;;;;;;;;5055429;28;20021;-56
2023/12/28 12:03:32;;;;;;;1.45;0.73;;;;;;;;;;5055092;28;20025;-56
2023/12/28 12:05:57;;;;;;;2.60;0.80;;;;;;;;;;5054775;28;20025;-56
2023/12/28 12:08:23;;;;;;;1.25;0.70;;;;;;;;;;5055626;28;20119;-55
2023/12/28 12:11:00;;;;;;;1.75;0.90;;;;;;;;;;5055325;28;20025;-55
2023/12/28 12:13:27;;;;;;;3.60;0.77;;;;;;;;;;5055025;28;20051;-58
2023/12/28 12:15:53;;;;;;;2.33;0.95;;;;;;;;;;5055205;28;20075;-55
2023/12/28 12:18:19;;;;;;;1.42;0.80;;;;;;;;;;5055177;28;20029;-55
2023/12/28 12:20:45;;;;;;;1.85;0.80;;;;;;;;;;5054803;28;20106;-52
2023/12/28 12:23:12;;;;;;;2.40;0.82;;;;;;;;;;5055266;28;20068;-57
2023/12/28 12:25:38;;;;;;;1.83;0.80;;;;;;;;;;5054857;28;20067;-58
2023/12/28 12:28:04;;;;;;;2.40;0.90;;;;;;;;;;5055303;28;20561;-57
2023/12/28 12:30:30;;;;;;;2.75;1.00;;;;;;;;;;5054709;28;20028;-57
2023/12/28 12:32:56;;;;;;;2.50;1.13;;;;;;;;;;5053180;28;20029;-57
2023/12/28 12:35:23;;;;;;;2.58;0.98;;;;;;;;;;5054708;28;20033;-56
2023/12/28 12:37:50;;;;;;;1.95;0.82;;;;;;;;;;5054894;28;20360;-57
2023/12/28 12:40:17;;;;;;;2.33;1.10;;;;;;;;;;5054675;28;20029;-57
2023/12/28 12:42:43;;;;;;;1.38;0.82;;;;;;;;;;5054350;28;20104;-55
2023/12/28 12:45:10;;;;;;;4.13;1.05;;;;;;;;;;5054295;28;20037;-58
2023/12/28 12:47:36;;;;;;;2.33;1.02;;;;;;;;;;5053821;28;20021;-59
2023/12/28 12:50:02;;;;;;;2.13;1.15;;;;;;;;;;5054381;28;20028;-58
2023/12/28 12:52:28;;;;;;;2.30;1.15;;;;;;;;;;5054902;28;20025;-59
2023/12/28 12:54:57;;;;;;;4.43;1.15;;;;;;;;;;5053939;28;20053;-59
2023/12/28 12:57:26;;;;;;;1.92;1.00;;;;;;;;;;5053987;28;20029;-59
2023/12/28 12:59:52;;;;;;;2.67;1.15;;;;;;;;;;5054333;28;20033;-58
2023/12/28 13:02:17;;;;;;;1.65;0.90;;;;;;;;;;5054025;28;20032;-58
2023/12/28 13:04:44;;;;;;;5.38;1.08;;;;;;;;;;5054144;28;20089;-59
2023/12/28 13:07:10;;;;;;;1.55;0.80;;;;;;;;;;5054957;28;20021;-58
2023/12/28 13:09:36;;;;;;;1.42;0.82;;;;;;;;;;5053680;28;20028;-60
2023/12/28 13:12:03;;;;;;;1.90;1.00;;;;;;;;;;5054485;28;20029;-59
2023/12/28 13:14:29;;;;;;;2.05;0.95;;;;;;;;;;5053788;28;20032;-58
2023/12/28 13:16:55;;;;;;;3.50;1.25;;;;;;;;;;5053745;28;20033;-59
2023/12/28 13:19:22;;;;;;;2.05;1.05;;;;;;;;;;5053770;28;20025;-58
2023/12/28 13:21:48;;;;;;;4.75;1.17;;;;;;;;;;5054517;28;20077;-59
2023/12/28 13:24:14;;;;;;;1.83;0.85;;;;;;;;;;5054264;28;20033;-59
2023/12/28 13:26:40;;;;;;;1.70;0.90;;;;;;;;;;5053615;28;20024;-58
2023/12/28 13:29:09;;;;;;;3.35;0.98;;;;;;;;;;5053840;28;20028;-59
2023/12/28 13:31:35;;;;;;;2.17;1.10;;;;;;;;;;5053987;28;20029;-59
2023/12/28 13:34:01;;;;;;;4.50;1.05;;;;;;;;;;5053884;28;20028;-59
2023/12/28 13:36:28;;;;;;;1.65;0.88;;;;;;;;;;5054545;28;20033;-59
2023/12/28 13:38:54;;;;;;;2.60;1.20;;;;;;;;;;5054381;28;20471;-58
2023/12/28 13:41:20;;;;;;;4.35;1.08;;;;;;;;;;5053856;28;20025;-59
2023/12/28 13:43:46;;;;;;;2.03;1.42;;;;;;;;;;5053760;28;20351;-59
2023/12/28 13:46:12;;;;;;;2.97;1.13;;;;;;;;;;5053820;28;20044;-58
2023/12/28 13:48:42;;;;;;;2.05;0.90;;;;;;;;;;5053839;28;20040;-59
2023/12/28 13:51:08;;;;;;;2.38;1.10;;;;;;;;;;5054318;28;20029;-59
2023/12/28 13:53:40;;;;;;;2.40;1.20;;;;;;;;;;5053649;28;20032;-58
2023/12/28 13:56:06;;;;;;;2.38;1.08;;;;;;;;;;5053658;28;20092;-58
2023/12/28 13:58:32;;;;;;;2.00;1.25;;;;;;;;;;5056870;28;20120;-58
2023/12/28 14:00:58;;;;;;;2.50;1.13;;;;;;;;;;5058547;28;20462;-59
2023/12/28 14:03:24;;;;;;;2.53;1.38;;;;;;;;;;5057667;28;20413;-59
2023/12/28 14:05:50;;;;;;;6.13;1.30;;;;;;;;;;5057603;28;20029;-58
2023/12/28 14:08:16;;;;;;;2.17;1.10;;;;;;;;;;5057981;28;20025;-59
2023/12/28 14:10:42;;;;;;;2.05;0.82;;;;;;;;;;5057343;28;20459;-59
2023/12/28 14:13:08;;;;;;;1.48;0.93;;;;;;;;;;5057805;28;20037;-58
2023/12/28 14:15:34;;;;;;;2.30;1.10;;;;;;;;;;5058040;28;20442;-59
2023/12/28 14:18:00;;;;;;;1.85;1.05;;;;;;;;;;5058250;28;20032;-59
2023/12/28 14:20:27;;;;;;;1.80;0.93;;;;;;;;;;5057492;28;20370;-58
2023/12/28 14:22:53;;;;;;;1.83;0.95;;;;;;;;;;5057655;28;20029;-59
2023/12/28 14:25:19;;;;;;;5.05;1.73;;;;;;;;;;5057483;28;20029;-59
2023/12/28 14:27:46;;;;;;;2.13;1.17;;;;;;;;;;5057959;28;20029;-58
2023/12/28 14:30:12;;;;;;;2.42;1.02;;;;;;;;;;5057311;28;20071;-58
2023/12/28 14:32:38;;;;;;;1.80;1.10;;;;;;;;;;5057733;28;20025;-59
2023/12/28 14:35:04;;;;;;;1.90;0.90;;;;;;;;;;5056793;28;20115;-58
2023/12/28 14:37:30;;;;;;;2.65;0.75;;;;;;;;;;5057164;28;20033;-58
2023/12/28 14:39:56;;;;;;;5.18;1.10;;;;;;;;;;5057098;28;20029;-58